Time;durP1;ratioP1;P1;durP2;ratioP2;P2;SDS_P1;SDS_P2;PMS_P1;PMS_P2;Temp;Humidity;BMP_temperature;BMP_pressure;BME280_temperature;BME280_humidity;BME280_pressure;Samples;Min_cycle;Max_cycle;Signal;HPM_P1;HPM_P2
2022/01/13 00:02:14;;;;;;;;;5.00;5.00;;;;;16.18;54.45;104157.56;5011304;28;8796;-81
2022/01/13 00:04:39;;;;;;;;;6.25;5.25;;;;;16.18;54.05;104162.81;5010622;28;9493;-81
2022/01/13 00:09:40;;;;;;;;;6.50;6.50;;;;;16.17;54.20;104147.81;5419506;23;8868;-80
2022/01/13 00:12:08;;;;;;;;;6.25;6.25;;;;;16.12;54.25;104154.63;5011288;28;9586;-81
2022/01/13 00:15:08;;;;;;;;;5.25;5.00;;;;;16.10;54.40;104151.88;5010164;28;8800;-81
2022/01/13 00:18:14;;;;;;;;;7.75;5.75;;;;;16.16;54.45;104165.38;5007398;28;9662;-80
2022/01/13 00:26:06;;;;;;;;;6.50;6.50;;;;;16.09;54.38;104135.97;5014429;28;9514;-80
2022/01/13 00:28:43;;;;;;;;;9.50;8.00;;;;;16.16;54.19;104157.47;5014072;28;9665;-81
2022/01/13 00:31:18;;;;;;;;;5.50;5.00;;;;;16.11;54.06;104143.16;5014637;28;9484;-80
2022/01/13 00:34:06;;;;;;;;;5.75;5.75;;;;;16.16;54.45;104156.59;5014549;28;9652;-81
2022/01/13 00:36:39;;;;;;;;;5.75;5.75;;;;;16.14;54.42;104143.31;5016251;28;9429;-81
2022/01/13 00:39:11;;;;;;;;;9.00;6.00;;;;;16.08;54.47;104136.84;5014297;28;9481;-80
2022/01/13 00:41:48;;;;;;;;;6.25;5.75;;;;;16.16;54.31;104144.28;5013796;28;9656;-80
2022/01/13 00:44:35;;;;;;;;;8.50;7.50;;;;;16.11;54.08;104134.34;5014232;28;9716;-80
2022/01/13 00:47:27;;;;;;;;;6.75;6.50;;;;;16.14;54.41;104153.84;5013978;28;9568;-80
2022/01/13 00:49:52;;;;;;;;;5.25;5.25;;;;;16.20;54.46;104167.34;5013469;28;9498;-81
2022/01/13 00:52:18;;;;;;;;;6.75;6.00;;;;;16.15;54.44;104170.59;5014075;28;9572;-80
2022/01/13 00:54:43;;;;;;;;;5.75;5.75;;;;;16.14;54.30;104160.84;5013737;28;8796;-80
2022/01/13 00:57:08;;;;;;;;;8.25;6.00;;;;;16.15;54.59;104160.94;5026555;28;9551;-80
2022/01/13 00:59:37;;;;;;;;;5.50;5.50;;;;;16.17;54.36;104163.66;5033813;28;8780;-81
2022/01/13 01:02:02;;;;;;;;;6.00;5.50;;;;;16.17;54.43;104166.28;5033757;28;8772;-81
2022/01/13 01:04:27;;;;;;;;;6.50;6.50;;;;;16.18;54.40;104169.00;5032959;28;9738;-82
2022/01/13 01:06:53;;;;;;;;;7.25;6.50;;;;;16.15;54.54;104168.84;5033601;28;8810;-81
2022/01/13 01:09:37;;;;;;;;;6.25;6.25;;;;;16.16;54.34;104167.13;5032899;28;9610;-80
2022/01/13 01:12:03;;;;;;;;;5.25;4.75;;;;;16.13;54.16;104164.31;5026915;28;8787;-82
2022/01/13 01:14:32;;;;;;;;;10.25;7.50;;;;;16.15;54.31;104162.69;5033658;28;10272;-81
2022/01/13 01:16:57;;;;;;;;;4.25;4.00;;;;;16.13;54.16;104164.31;5032838;28;8787;-80
2022/01/13 01:19:27;;;;;;;;;6.00;6.00;;;;;16.16;54.33;104168.00;5033643;28;9469;-80
2022/01/13 01:22:16;;;;;;;;;5.75;5.75;;;;;16.12;54.10;104160.75;5033059;28;8803;-80
2022/01/13 01:25:01;;;;;;;;;9.00;7.75;;;;;16.17;54.43;104163.66;5032356;28;9759;-80
2022/01/13 01:27:32;;;;;;;;;8.00;7.25;;;;;16.14;54.25;104174.94;5033092;28;9489;-80
2022/01/13 01:30:04;;;;;;;;;5.00;5.00;;;;;16.12;54.24;104173.06;5025647;28;9535;-80
2022/01/13 01:32:34;;;;;;;;;4.00;4.00;;;;;16.15;54.28;104170.59;5032778;28;9494;-80
2022/01/13 01:35:02;;;;;;;;;6.50;5.00;;;;;16.15;54.20;104173.22;5032636;28;9641;-81
2022/01/13 01:37:30;;;;;;;;;7.75;7.50;;;;;16.13;54.24;104178.41;5032284;28;9479;-81
2022/01/13 01:39:58;;;;;;;;;6.00;5.00;;;;;16.10;54.18;104167.72;5032880;28;10201;-82
2022/01/13 01:42:24;;;;;;;;;6.00;6.00;;;;;16.15;54.31;104173.22;5033034;28;9469;-79
2022/01/13 01:44:54;;;;;;;;;5.50;5.25;;;;;16.14;54.08;104171.41;5032080;28;9818;-80
2022/01/13 01:47:21;;;;;;;;;8.75;6.00;;;;;16.17;54.17;104174.19;5033102;28;9681;-80
2022/01/13 01:49:52;;;;;;;;;5.00;4.00;;;;;16.17;54.09;104169.81;5031784;28;9513;-80
2022/01/13 01:52:19;;;;;;;;;4.25;4.25;;;;;16.11;54.19;104166.88;5032325;28;9566;-80
2022/01/13 01:54:48;;;;;;;;;5.00;4.00;;;;;16.11;54.10;104161.63;5032464;28;9536;-80
2022/01/13 01:57:23;;;;;;;;;5.00;5.00;;;;;16.08;54.19;104164.09;5032916;28;9741;-81
2022/01/13 01:59:49;;;;;;;;;6.00;6.00;;;;;16.14;54.04;104161.78;5031739;28;9464;-77
2022/01/13 02:02:15;;;;;;;;;7.25;7.25;;;;;16.13;54.23;104162.59;5032917;28;9834;-77
2022/01/13 02:04:42;;;;;;;;;5.00;5.00;;;;;16.13;54.04;104165.22;5032393;28;8958;-77
2022/01/13 02:07:08;;;;;;;;;6.25;4.75;;;;;16.13;54.18;104169.59;5031815;28;9701;-77
2022/01/13 02:09:37;;;;;;;;;7.00;5.75;;;;;16.14;54.03;104167.03;5032322;28;9606;-77
2022/01/13 02:12:07;;;;;;;;;7.00;7.00;;;;;16.13;54.10;104166.94;5031028;28;9779;-77
2022/01/13 02:14:54;;;;;;;;;5.50;5.50;;;;;16.13;54.08;104161.69;5031620;28;9689;-77
2022/01/13 02:17:26;;;;;;;;;8.50;6.50;;;;;16.13;54.40;104159.94;5032464;28;9621;-77
2022/01/13 02:19:54;;;;;;;;;5.75;5.75;;;;;16.14;54.24;104156.50;5031389;28;9708;-77
2022/01/13 02:22:21;;;;;;;;;6.00;5.50;;;;;16.13;54.16;104159.94;5032479;28;9566;-77
2022/01/13 02:24:46;;;;;;;;;6.25;6.25;;;;;16.13;54.50;104151.13;5031821;28;10462;-77
2022/01/13 02:27:15;;;;;;;;;5.00;5.00;;;;;16.09;54.10;104146.53;5031688;28;9724;-77
2022/01/13 02:29:40;;;;;;;;;6.00;4.75;;;;;16.13;54.42;104149.41;5032052;28;8776;-77
2022/01/13 02:32:07;;;;;;;;;4.50;4.50;;;;;16.13;54.01;104137.94;5032366;28;9641;-77
2022/01/13 02:34:33;;;;;;;;;5.00;5.00;;;;;16.13;54.16;104130.03;5031297;28;9563;-78
2022/01/13 02:36:59;;;;;;;;;4.00;4.00;;;;;16.13;54.24;104127.41;5031787;28;9638;-78
2022/01/13 02:39:30;;;;;;;;;4.75;4.75;;;;;16.13;54.31;104128.31;5031860;28;11395;-78
2022/01/13 02:41:56;;;;;;;;;4.25;4.25;;;;;16.12;54.35;104118.59;5031124;28;9543;-77
2022/01/13 02:44:24;;;;;;;;;5.00;5.00;;;;;16.09;54.28;104118.44;5031622;28;9572;-77
2022/01/13 02:49:34;;;;;;;;;6.00;6.00;;;;;16.10;54.25;104115.00;5031152;28;9679;-77
2022/01/13 02:51:59;;;;;;;;;5.25;4.50;;;;;16.12;54.17;104117.72;5031722;28;9190;-78
2022/01/13 02:54:25;;;;;;;;;5.00;5.00;;;;;16.13;54.17;104114.22;5031798;28;9695;-78
2022/01/13 02:56:50;;;;;;;;;5.00;5.00;;;;;16.10;54.55;104116.72;5030943;28;8807;-77
2022/01/13 02:59:16;;;;;;;;;4.25;4.25;;;;;16.07;54.40;104113.94;5031913;28;8788;-77
2022/01/13 03:01:41;;;;;;;;;4.75;4.75;;;;;16.13;54.37;104120.41;5030791;28;8788;-77
2022/01/13 03:04:08;;;;;;;;;5.00;5.00;;;;;16.10;54.06;104122.91;5031556;28;8784;-77
2022/01/13 03:06:38;;;;;;;;;9.00;6.00;;;;;16.13;54.47;104122.13;5031550;28;8858;-77
2022/01/13 03:09:08;;;;;;;;;4.75;4.25;;;;;16.13;54.25;104127.41;5030637;28;10298;-77
2022/01/13 03:11:37;;;;;;;;;6.50;6.00;;;;;16.13;54.05;104124.78;5031441;28;9479;-77
2022/01/13 03:14:08;;;;;;;;;4.00;4.00;;;;;16.11;54.09;104114.16;5031232;28;9535;-77
2022/01/13 03:16:34;;;;;;;;;5.00;5.00;;;;;16.12;54.35;104121.22;5030955;28;10449;-77
2022/01/13 03:18:59;;;;;;;;;4.50;4.50;;;;;16.12;54.19;104112.44;5031040;28;9562;-77
2022/01/13 03:21:24;;;;;;;;;5.00;5.00;;;;;16.10;54.12;104104.44;5031498;28;8792;-77
2022/01/13 03:23:51;;;;;;;;;6.50;6.50;;;;;16.11;54.19;104098.34;5030616;28;8788;-77
2022/01/13 03:26:16;;;;;;;;;6.25;6.25;;;;;16.10;54.23;104106.16;5031361;28;8834;-77
2022/01/13 03:28:51;;;;;;;;;5.25;5.25;;;;;16.10;54.40;104104.44;5031165;28;9469;-77
2022/01/13 03:31:19;;;;;;;;;4.50;4.50;;;;;16.12;54.17;104110.69;5030584;28;8788;-77
2022/01/13 03:33:45;;;;;;;;;6.00;5.00;;;;;16.09;54.17;104104.34;5031070;28;9554;-77
2022/01/13 03:36:10;;;;;;;;;6.50;6.00;;;;;16.11;54.32;104106.25;5031293;28;9638;-77
2022/01/13 03:38:36;;;;;;;;;6.00;5.00;;;;;16.12;54.37;104105.41;5030454;28;9543;-77
2022/01/13 03:41:03;;;;;;;;;7.00;6.00;;;;;16.09;54.06;104102.63;5030786;28;8831;-77
2022/01/13 03:43:28;;;;;;;;;5.00;5.00;;;;;16.13;54.19;104096.69;5031413;28;8784;-77
2022/01/13 03:45:53;;;;;;;;;5.75;5.50;;;;;16.12;54.07;104094.88;5029948;28;9950;-77
2022/01/13 03:48:19;;;;;;;;;5.00;5.00;;;;;16.12;54.34;104094.00;5030873;28;8768;-77
2022/01/13 03:50:45;;;;;;;;;5.00;4.00;;;;;16.09;54.29;104091.16;5031150;28;8887;-77
2022/01/13 03:53:28;;;;;;;;;6.00;6.00;;;;;16.12;54.35;104092.22;5030506;28;8792;-77
2022/01/13 03:56:47;;;;;;;;;8.75;8.75;;;;;16.07;54.12;104093.75;5030851;28;8780;-77
2022/01/13 03:59:41;;;;;;;;;5.75;5.00;;;;;16.11;54.32;104098.34;5034460;28;9847;-77
2022/01/13 04:02:14;;;;;;;;;4.75;4.25;;;;;16.07;54.47;104098.13;5035016;28;9772;-77
2022/01/13 04:04:49;;;;;;;;;7.75;7.75;;;;;16.06;54.45;104101.56;5034569;28;10294;-77
2022/01/13 04:07:21;;;;;;;;;5.00;5.00;;;;;16.10;54.33;104103.53;5034623;28;9542;-77
2022/01/13 04:09:46;;;;;;;;;4.75;4.75;;;;;16.12;54.29;104110.69;5034237;28;9747;-77
2022/01/13 04:12:13;;;;;;;;;3.25;3.25;;;;;16.10;54.19;104100.91;5034079;28;9640;-77
2022/01/13 04:17:11;;;;;;;;;4.75;4.25;;;;;16.04;54.50;104088.34;5034663;28;9715;-77
2022/01/13 04:19:36;;;;;;;;;4.50;4.25;;;;;16.11;54.20;104086.91;5033741;28;9469;-77
2022/01/13 04:22:03;;;;;;;;;4.25;4.25;;;;;16.08;54.33;104081.47;5034583;28;9645;-77
2022/01/13 04:24:29;;;;;;;;;5.00;5.00;;;;;16.07;54.49;104077.94;5034300;28;9532;-77
2022/01/13 04:26:56;;;;;;;;;5.25;5.25;;;;;16.09;54.58;104083.25;5033516;28;9628;-77
2022/01/13 04:29:31;;;;;;;;;5.75;5.00;;;;;16.06;54.43;104085.75;5034333;28;8869;-77
2022/01/13 04:31:56;;;;;;;;;6.00;5.00;;;;;16.13;54.16;104087.88;5033945;28;9657;-77
2022/01/13 04:34:21;;;;;;;;;4.00;4.00;;;;;16.09;54.18;104094.72;5033857;28;9764;-77
2022/01/13 04:36:47;;;;;;;;;4.25;4.25;;;;;16.09;54.21;104094.72;5034049;28;8795;-77
2022/01/13 04:39:14;;;;;;;;;6.00;5.75;;;;;16.10;54.25;104095.63;5034461;28;8898;-77
2022/01/13 04:41:43;;;;;;;;;5.50;5.50;;;;;16.08;54.23;104086.75;5033118;28;9611;-77
2022/01/13 04:44:11;;;;;;;;;7.00;5.50;;;;;16.09;54.18;104091.16;5034370;28;9684;-77
2022/01/13 04:46:37;;;;;;;;;5.00;5.00;;;;;16.09;54.12;104089.44;5033992;28;9551;-77
2022/01/13 04:49:04;;;;;;;;;5.50;5.50;;;;;16.07;54.35;104082.31;5032994;28;9467;-77
2022/01/13 04:51:30;;;;;;;;;3.00;3.00;;;;;16.08;54.11;104065.66;5034154;28;9567;-76
2022/01/13 04:53:57;;;;;;;;;3.75;3.75;;;;;16.10;54.39;104077.19;5033750;28;9521;-77
2022/01/13 04:56:37;;;;;;;;;7.25;7.25;;;;;16.07;54.56;104077.94;5033206;28;9653;-77
2022/01/13 04:59:03;;;;;;;;;5.50;5.25;;;;;16.09;54.15;104075.34;5026760;28;9669;-76
2022/01/13 05:01:29;;;;;;;;;5.00;5.00;;;;;16.09;54.05;104083.25;5033143;28;9650;-76
2022/01/13 05:03:54;;;;;;;;;5.00;4.00;;;;;16.08;54.40;104084.13;5033134;28;8792;-76
2022/01/13 05:06:19;;;;;;;;;5.50;5.50;;;;;16.07;54.40;104090.22;5033753;28;8812;-76
2022/01/13 05:08:45;;;;;;;;;6.00;6.00;;;;;16.08;54.26;104095.56;5031588;28;9624;-76
2022/01/13 05:11:11;;;;;;;;;8.00;6.00;;;;;16.07;54.15;104096.38;5033734;28;8780;-76
2022/01/13 05:13:36;;;;;;;;;4.50;4.50;;;;;16.04;54.21;104092.69;5033714;28;9494;-76
2022/01/13 05:16:01;;;;;;;;;8.00;4.50;;;;;16.04;54.31;104090.97;5032594;28;8795;-76
2022/01/13 05:21:21;;;;;;;;;4.50;4.50;;;;;16.07;54.25;104085.84;5033570;28;8744;-77
2022/01/13 05:23:46;;;;;;;;;5.75;5.00;;;;;16.10;54.27;104093.00;5032554;28;10383;-77
2022/01/13 05:26:12;;;;;;;;;9.00;6.75;;;;;16.05;54.31;104086.56;5033420;28;9503;-77
2022/01/13 05:28:40;;;;;;;;;5.50;5.50;;;;;16.05;54.30;104083.94;5033688;28;8802;-77
2022/01/13 05:31:05;;;;;;;;;6.00;5.50;;;;;16.08;54.40;104092.94;5032808;28;8764;-78
2022/01/13 05:33:30;;;;;;;;;6.75;6.00;;;;;16.07;54.12;104088.47;5033291;28;9625;-77
2022/01/13 05:35:56;;;;;;;;;5.50;5.50;;;;;16.10;54.19;104096.53;5032965;28;8791;-77
2022/01/13 05:38:25;;;;;;;;;8.25;6.50;;;;;16.07;54.25;104088.47;5032628;28;8792;-77
2022/01/13 05:40:50;;;;;;;;;6.00;6.00;;;;;16.11;54.40;104092.16;5033022;28;8799;-77
2022/01/13 05:43:15;;;;;;;;;5.75;4.75;;;;;16.12;54.13;104089.59;5033036;28;9640;-77
2022/01/13 05:45:40;;;;;;;;;5.00;5.00;;;;;16.09;54.11;104094.72;5031926;28;8950;-77
2022/01/13 05:48:07;;;;;;;;;7.00;7.00;;;;;16.11;54.14;104092.16;5032874;28;8846;-77
2022/01/13 05:50:33;;;;;;;;;6.50;5.75;;;;;16.08;54.28;104084.13;5032345;28;8810;-76
2022/01/13 05:52:59;;;;;;;;;7.00;7.00;;;;;16.07;54.33;104088.47;5032774;28;9378;-76
2022/01/13 05:55:24;;;;;;;;;6.00;6.00;;;;;16.08;54.14;104089.38;5032597;28;9550;-77
2022/01/13 05:57:50;;;;;;;;;7.50;5.00;;;;;16.07;54.11;104085.84;5031922;28;9641;-77
2022/01/13 06:00:18;;;;;;;;;6.00;6.00;;;;;16.10;54.12;104095.63;5032899;28;8768;-77
2022/01/13 06:02:44;;;;;;;;;3.25;3.25;;;;;16.10;54.35;104090.34;5032618;28;8926;-77
2022/01/13 06:05:10;;;;;;;;;5.50;4.75;;;;;16.07;54.34;104093.75;5031827;28;9513;-77
2022/01/13 06:07:36;;;;;;;;;10.25;9.25;;;;;16.10;54.23;104086.00;5032529;28;9500;-77
2022/01/13 06:10:04;;;;;;;;;7.25;6.00;;;;;16.11;54.22;104093.09;5032296;28;10039;-77
2022/01/13 06:12:34;;;;;;;;;10.75;8.75;;;;;16.09;54.22;104100.00;5032080;28;9634;-77
2022/01/13 06:15:00;;;;;;;;;6.25;6.25;;;;;16.09;54.28;104091.16;5032237;28;9670;-77
2022/01/13 06:17:26;;;;;;;;;6.75;5.75;;;;;16.12;54.09;104088.72;5032702;28;9646;-77
2022/01/13 06:19:51;;;;;;;;;5.00;5.00;;;;;16.07;54.14;104085.84;5031407;28;9552;-77
2022/01/13 06:22:16;;;;;;;;;6.50;5.25;;;;;16.10;54.24;104087.72;5032211;28;8787;-77
2022/01/13 06:24:44;;;;;;;;;4.50;4.00;;;;;16.09;54.28;104084.19;5031790;28;8908;-77
2022/01/13 06:27:10;;;;;;;;;9.25;8.00;;;;;16.11;54.31;104092.16;5031646;28;8771;-77
2022/01/13 06:29:35;;;;;;;;;9.75;9.75;;;;;16.09;54.46;104085.91;5032077;28;9593;-77
2022/01/13 06:32:00;;;;;;;;;8.75;8.75;;;;;16.08;54.11;104089.38;5032158;28;8922;-78
2022/01/13 06:34:25;;;;;;;;;4.00;3.00;;;;;16.06;54.41;104084.03;5031283;28;8779;-77
2022/01/13 06:36:51;;;;;;;;;8.25;8.25;;;;;16.08;54.00;104090.28;5031762;28;8796;-77
2022/01/13 06:39:16;;;;;;;;;6.25;6.25;;;;;16.10;54.40;104082.44;5032039;28;8906;-77
2022/01/13 06:41:41;;;;;;;;;10.25;9.00;;;;;16.09;53.99;104083.25;5031134;28;8791;-77
2022/01/13 06:44:07;;;;;;;;;9.00;7.25;;;;;16.11;54.30;104087.81;5031982;28;8776;-77
2022/01/13 06:46:32;;;;;;;;;9.25;7.75;;;;;16.11;54.11;104087.81;5031761;28;8823;-77
2022/01/13 06:48:58;;;;;;;;;6.00;6.00;;;;;16.12;54.30;104088.72;5030877;28;8803;-77
2022/01/13 06:51:23;;;;;;;;;5.75;5.75;;;;;16.13;54.22;104085.22;5032013;28;8784;-77
2022/01/13 06:53:49;;;;;;;;;8.50;7.50;;;;;16.07;54.25;104090.22;5030547;28;8810;-77
2022/01/13 06:56:14;;;;;;;;;8.50;8.50;;;;;16.07;54.09;104085.84;5031735;28;8780;-77
2022/01/13 06:58:43;;;;;;;;;8.50;8.25;;;;;16.10;54.20;104091.25;5031622;28;9535;-77
2022/01/13 07:01:08;;;;;;;;;6.25;6.25;;;;;16.05;54.28;104091.84;5030837;28;8801;-77
2022/01/13 07:03:34;;;;;;;;;7.00;7.00;;;;;16.08;54.17;104092.94;5031758;28;9727;-77
2022/01/13 07:05:59;;;;;;;;;8.75;8.75;;;;;16.11;54.12;104092.16;5031160;28;8832;-77
2022/01/13 07:08:24;;;;;;;;;7.75;7.75;;;;;16.11;54.14;104094.81;5030860;28;8788;-79
2022/01/13 07:10:49;;;;;;;;;9.50;9.50;;;;;16.08;54.51;104086.75;5031296;28;8791;-77
2022/01/13 07:13:15;;;;;;;;;9.50;9.25;;;;;16.11;54.14;104097.44;5031818;28;8764;-77
2022/01/13 07:15:44;;;;;;;;;4.75;4.75;;;;;16.07;54.34;104080.56;5030532;28;9547;-79
2022/01/13 07:18:10;;;;;;;;;13.00;11.00;;;;;16.23;60.81;104083.13;5031523;28;8906;-81
2022/01/13 07:20:35;;;;;;;;;10.75;9.75;;;;;16.40;62.12;104076.06;5030535;28;9822;-80
2022/01/13 07:23:01;;;;;;;;;13.75;13.00;;;;;16.53;63.45;104085.50;5030417;28;10473;-80
2022/01/13 07:25:26;;;;;;;;;12.50;12.50;;;;;16.60;65.64;104075.34;5031424;28;9705;-80
2022/01/13 07:27:52;;;;;;;;;11.00;11.00;;;;;16.72;65.88;104097.03;5031032;28;8780;-80
2022/01/13 07:30:26;;;;;;;;;11.75;10.00;;;;;16.78;66.38;104091.16;5032995;28;9531;-81
2022/01/13 07:33:31;;;;;;;;;13.00;12.50;;;;;16.75;67.08;104083.09;5030394;28;8796;-81
2022/01/13 07:36:17;;;;;;;;;14.25;14.25;;;;;16.91;68.33;104094.44;5023327;28;9866;-85
2022/01/13 07:38:58;;;;;;;;;15.00;13.25;;;;;16.89;70.34;104077.63;5030196;28;10539;-80
2022/01/13 07:41:29;;;;;;;;;15.50;11.75;;;;;16.86;67.94;104085.41;5030988;28;9941;-80
2022/01/13 07:43:57;;;;;;;;;19.25;16.50;;;;;16.83;68.68;104095.81;5029960;28;9950;-79
2022/01/13 07:46:24;;;;;;;;;15.00;14.00;;;;;16.90;69.77;104097.03;5030918;28;10197;-80
2022/01/13 07:48:58;;;;;;;;;11.75;11.00;;;;;16.88;69.11;104091.66;5030436;28;9943;-80
2022/01/13 07:51:33;;;;;;;;;14.25;13.00;;;;;16.92;69.19;104092.72;5017264;28;10617;-79
2022/01/13 07:54:10;;;;;;;;;14.00;12.00;;;;;16.91;69.13;104107.63;5007643;28;10647;-79
2022/01/13 07:56:38;;;;;;;;;11.00;11.00;;;;;16.84;69.10;104105.53;5011207;28;9870;-78
2022/01/13 07:59:21;;;;;;;;;12.00;11.50;;;;;16.76;69.40;104111.25;5010081;28;9721;-78
2022/01/13 08:01:57;;;;;;;;;14.75;12.75;;;;;16.81;68.95;104115.94;5010848;28;10606;-78
2022/01/13 08:04:22;;;;;;;;;14.50;13.75;;;;;16.82;68.94;104124.78;5009715;28;9803;-77
2022/01/13 08:06:51;;;;;;;;;18.25;13.00;;;;;16.79;68.93;104119.34;5010552;28;9880;-79
2022/01/13 08:09:16;;;;;;;;;13.75;11.25;;;;;16.78;68.58;104115.81;5011025;28;8817;-79
2022/01/13 08:11:41;;;;;;;;;18.75;14.00;;;;;16.72;68.64;104115.50;5010071;28;9579;-79
2022/01/13 08:14:07;;;;;;;;;12.75;11.00;;;;;16.73;68.60;104114.66;5010952;28;8779;-79
2022/01/13 08:16:35;;;;;;;;;11.75;10.50;;;;;16.73;68.56;104114.66;5010782;28;8980;-78
2022/01/13 08:21:44;;;;;;;;;12.75;12.50;;;;;16.70;68.24;104113.63;5010372;28;9681;-77
2022/01/13 08:24:12;;;;;;;;;13.25;12.50;;;;;16.68;67.75;104120.56;5010667;28;9925;-77
2022/01/13 08:26:44;;;;;;;;;15.75;13.00;;;;;16.68;67.53;104113.56;5016626;23;8875;-77
2022/01/13 08:29:09;;;;;;;;;11.25;11.25;;;;;16.63;67.70;104120.34;5011032;28;9799;-78
2022/01/13 08:31:35;;;;;;;;;10.50;8.75;;;;;16.66;67.27;104122.22;5010815;28;9704;-78
2022/01/13 08:34:14;;;;;;;;;13.25;11.25;;;;;16.55;67.35;104105.84;5009772;28;8818;-78
2022/01/13 08:36:54;;;;;;;;;15.25;12.00;;;;;16.60;66.75;104116.66;5009745;28;8809;-78
2022/01/13 08:39:40;;;;;;;;;14.50;12.25;;;;;16.60;66.36;104125.47;5010779;23;9901;-77
2022/01/13 08:42:12;;;;;;;;;12.75;11.50;;;;;16.57;66.92;104122.66;4990897;28;9724;-78
2022/01/13 08:44:54;;;;;;;;;11.75;10.00;;;;;16.53;66.17;104114.50;4992887;28;9650;-79
2022/01/13 08:47:22;;;;;;;;;5.75;5.75;;;;;16.54;65.90;104122.47;4994021;28;9716;-79
2022/01/13 08:49:51;;;;;;;;;14.00;12.75;;;;;16.61;65.79;104124.63;5000636;28;9751;-79
2022/01/13 08:52:19;;;;;;;;;10.50;10.25;;;;;16.58;65.84;104123.56;4992078;28;9958;-78
2022/01/13 08:58:22;;;;;;;;;10.50;10.50;;;;;16.54;65.15;104129.47;4910808;29;9713;-79
2022/01/13 09:01:23;;;;;;;;;9.75;9.50;;;;;16.57;64.95;104134.97;4913418;29;10660;-80
2022/01/13 09:03:54;;;;;;;;;10.00;9.25;;;;;16.54;64.51;104132.13;4903341;29;9862;-82
2022/01/13 09:06:20;;;;;;;;;11.50;10.50;;;;;16.47;64.56;104120.38;4909038;29;9944;-83
2022/01/13 09:09:13;;;;;;;;;9.25;9.25;;;;;16.55;64.38;104140.13;4913405;29;9937;-83
2022/01/13 09:14:09;;;;;;;;;11.75;11.50;;;;;16.55;64.34;104136.56;5165412;23;9795;-82
2022/01/13 09:16:42;;;;;;;;;13.50;13.00;;;;;16.50;64.06;104136.34;4990561;28;9681;-82
2022/01/13 09:19:12;;;;;;;;;12.00;10.75;;;;;16.54;63.95;104140.03;4993603;28;8884;-82
2022/01/13 09:21:40;;;;;;;;;12.00;12.00;;;;;16.52;63.79;104139.06;4991172;28;9737;-82
2022/01/13 09:24:09;;;;;;;;;14.00;12.75;;;;;16.51;63.84;104137.25;4993873;28;9600;-82
2022/01/13 09:26:38;;;;;;;;;8.50;8.50;;;;;16.49;63.58;104131.91;4982874;28;9865;-82
2022/01/13 09:29:11;;;;;;;;;9.25;8.75;;;;;16.44;63.14;104121.13;4977880;28;9804;-82
2022/01/13 09:31:51;;;;;;;;;12.50;11.00;;;;;16.47;63.29;104128.28;4989030;28;9524;-81
2022/01/13 09:34:25;;;;;;;;;12.00;11.00;;;;;16.41;63.15;104113.09;4993086;28;9571;-82
2022/01/13 09:36:51;;;;;;;;;12.25;11.50;;;;;16.37;63.13;104118.13;4990909;28;9485;-81
2022/01/13 09:39:38;;;;;;;;;8.25;8.25;;;;;16.48;63.17;104118.66;4982141;28;9750;-81
2022/01/13 09:42:32;;;;;;;;;12.50;10.00;;;;;16.40;62.66;104115.63;4974260;28;8780;-82
2022/01/13 09:45:16;;;;;;;;;10.50;10.50;;;;;16.46;62.04;104118.56;4939497;28;9775;-83
2022/01/13 09:51:45;;;;;;;;;7.75;6.00;;;;;16.52;61.39;104120.59;4983873;28;9457;-81
2022/01/13 09:54:11;;;;;;;;;9.75;8.75;;;;;16.63;61.21;104127.34;4968023;28;10829;-83
2022/01/13 09:56:37;;;;;;;;;11.00;11.00;;;;;16.61;61.25;104129.91;4987557;28;9811;-83
2022/01/13 09:59:05;;;;;;;;;10.75;10.50;;;;;16.58;61.05;104123.56;4976390;28;9820;-82
2022/01/13 10:01:31;;;;;;;;;11.00;9.25;;;;;16.58;61.02;104136.75;4988548;28;10608;-82
2022/01/13 10:03:57;;;;;;;;;8.25;8.25;;;;;16.55;61.15;104134.84;4983776;28;10626;-84
2022/01/13 10:06:22;;;;;;;;;9.00;8.50;;;;;16.59;60.79;104136.84;4969096;28;9615;-83
2022/01/13 10:08:51;;;;;;;;;9.00;9.00;;;;;16.56;60.87;104126.16;4973243;28;8808;-84
2022/01/13 10:11:44;;;;;;;;;10.25;7.75;;;;;16.63;60.51;104127.34;4987929;28;8938;-84
2022/01/13 10:16:22;;;;;;;;;12.00;10.00;;;;;16.58;60.62;104132.38;5012523;28;9568;-84
2022/01/13 10:20:12;;;;;;;;;7.00;7.00;;;;;16.62;60.14;104126.44;4974919;28;10861;-82
2022/01/13 10:22:41;;;;;;;;;9.75;9.75;;;;;16.62;60.06;104120.25;4992108;28;9586;-83
2022/01/13 10:25:48;;;;;;;;;8.00;6.25;;;;;16.63;59.94;104133.53;4992002;28;9818;-81
2022/01/13 10:31:43;;;;;;;;;11.00;8.25;;;;;16.59;60.06;104125.38;4931302;29;9666;-81
2022/01/13 10:34:29;;;;;;;;;10.00;9.50;;;;;16.66;59.49;104138.03;4983889;28;9443;-81
2022/01/13 10:37:53;;;;;;;;;11.00;10.00;;;;;16.60;59.53;104120.19;4990058;28;9691;-82
2022/01/13 10:40:23;;;;;;;;;7.00;6.50;;;;;16.69;59.61;104120.63;4953547;23;9628;-81
2022/01/13 10:45:53;;;;;;;;;8.25;7.75;;;;;16.63;59.36;104124.72;5010887;28;9747;-83
2022/01/13 10:48:30;;;;;;;;;10.50;8.50;;;;;16.58;59.62;104119.19;4955280;28;9566;-82
2022/01/13 10:51:05;;;;;;;;;7.25;7.25;;;;;16.66;59.24;104122.22;5010894;28;9739;-82
2022/01/13 10:54:01;;;;;;;;;11.00;11.00;;;;;16.68;59.18;104121.47;5010791;28;9701;-82
2022/01/13 10:56:26;;;;;;;;;13.00;9.75;;;;;16.64;59.32;104115.97;5004681;28;9762;-82
2022/01/13 10:59:02;;;;;;;;;11.25;11.25;;;;;16.61;59.24;104119.34;5010813;28;9685;-81
2022/01/13 11:01:46;;;;;;;;;10.75;9.75;;;;;16.71;59.33;104129.53;5010271;28;8816;-82
2022/01/13 11:04:16;;;;;;;;;10.75;10.75;;;;;16.57;59.50;104113.88;5010903;28;9707;-79
2022/01/13 11:07:14;;;;;;;;;10.25;10.25;;;;;16.68;59.19;104117.94;5008866;28;9715;-82
2022/01/13 11:10:01;;;;;;;;;9.25;9.25;;;;;16.58;59.21;104113.00;5010699;28;9914;-81
2022/01/13 11:12:43;;;;;;;;;12.25;12.25;;;;;16.50;59.32;104107.31;5011051;28;9692;-81
2022/01/13 11:15:23;;;;;;;;;9.50;9.50;;;;;16.49;59.51;104102.91;5009917;28;9767;-81
2022/01/13 11:17:53;;;;;;;;;11.25;11.25;;;;;16.50;59.41;104101.16;5007425;28;9654;-81
2022/01/13 11:20:23;;;;;;;;;13.50;12.00;;;;;16.38;59.85;104091.81;5010768;28;9579;-82
2022/01/13 11:22:58;;;;;;;;;10.75;10.00;;;;;16.48;59.67;104113.38;5008376;28;9818;-82
2022/01/13 11:25:26;;;;;;;;;11.25;11.25;;;;;16.42;59.61;104100.81;5010587;28;9770;-82
2022/01/13 11:28:25;;;;;;;;;13.25;11.25;;;;;16.34;59.75;104094.25;5003062;28;9708;-82
2022/01/13 11:30:50;;;;;;;;;11.00;9.50;;;;;16.41;59.81;104101.63;5011656;28;9819;-80
2022/01/13 11:35:56;;;;;;;;;9.00;9.00;;;;;16.41;59.59;104096.34;4967637;28;8858;-83
2022/01/13 11:38:39;;;;;;;;;10.75;10.75;;;;;16.45;59.55;104106.22;4970753;28;9947;-83
2022/01/13 11:41:10;;;;;;;;;12.25;11.00;;;;;16.37;59.75;104089.09;4972734;28;9868;-82
2022/01/13 11:43:55;;;;;;;;;12.00;11.00;;;;;16.38;59.75;104091.81;4970901;28;9813;-82
2022/01/13 11:46:56;;;;;;;;;10.50;9.75;;;;;16.37;59.35;104084.75;5018198;23;9702;-82
2022/01/13 11:49:55;;;;;;;;;12.75;11.75;;;;;16.39;59.50;104090.97;5009498;28;9816;-83
2022/01/13 11:52:43;;;;;;;;;10.00;10.00;;;;;16.41;59.46;104089.34;5010996;28;9706;-83
2022/01/13 11:55:45;;;;;;;;;11.75;11.25;;;;;16.43;59.17;104092.03;5010879;28;9784;-83
2022/01/13 11:58:25;;;;;;;;;13.75;13.75;;;;;16.33;59.49;104072.22;4993806;28;9903;-83
2022/01/13 12:00:56;;;;;;;;;10.50;10.50;;;;;16.32;59.35;104069.50;5010791;28;9820;-83
2022/01/13 12:06:49;;;;;;;;;10.00;10.00;;;;;16.36;59.44;104072.38;5010366;28;9737;-84
2022/01/13 12:10:19;;;;;;;;;10.00;9.75;;;;;16.44;58.94;104051.66;5010932;28;9786;-81
2022/01/13 12:12:52;;;;;;;;;11.00;11.00;;;;;16.52;58.92;104058.22;4949156;29;9829;-82
2022/01/13 12:15:28;;;;;;;;;9.00;9.00;;;;;16.50;58.64;104059.84;4950633;29;9730;-81
2022/01/13 12:18:25;;;;;;;;;11.25;11.00;;;;;16.59;58.39;104064.72;4959601;28;9922;-82
2022/01/13 12:21:21;;;;;;;;;11.50;10.50;;;;;16.46;59.04;104051.75;4959569;28;9850;-82
2022/01/13 12:23:56;;;;;;;;;12.50;11.25;;;;;16.43;59.21;104053.38;4945721;28;10663;-83
2022/01/13 12:26:42;;;;;;;;;9.00;9.00;;;;;16.56;58.54;104046.06;4970306;28;9884;-84
2022/01/13 12:29:28;;;;;;;;;11.00;9.50;;;;;16.49;58.51;104034.34;4968438;28;9827;-83
2022/01/13 12:35:43;;;;;;;;;13.00;12.00;;;;;16.51;58.35;104019.47;4967706;28;10707;-84
2022/01/13 12:39:09;;;;;;;;;9.25;9.25;;;;;16.59;58.47;104041.88;5008577;28;10620;-84